Flight Track Log - Related Links

Times and Time Zones

All times are in EST time to prevent confusion due to time zone crossing. See the N45NS flight status page for this flight to view local times or setup timezone preferences in your user account.

Time Position Orientation Groundspeed Altitude Reporting Facility
EST Latitude Longitude Course Direction KTS MPH feet Rate Location/Type
Sat 08:58:00 AM 38.7833 -90.4333 305° West 222 255 3,600  Level Gateway (St. Louis) TRACON
Sat 08:59:16 AM 38.8150 -90.5322 292° West 250 288 7,800 3,504 Climbing Kansas City Center
Sat 09:00:17 AM 38.8300 -90.6236 282° West 264 304 11,600 3,590 Climbing Kansas City Center
Sat 09:01:18 AM 38.8467 -90.7100 284° West 256 295 15,100 2,927 Climbing Kansas City Center
Sat 09:02:20 AM 38.8633 -90.7981 284° West 253 291 17,600 2,439 Climbing Kansas City Center
Sat 09:03:21 AM 38.8828 -90.8964 284° West 275 316 20,100 2,852 Climbing Kansas City Center
Sat 09:04:22 AM 38.9067 -91.0197 284° West 292 336 23,400 2,754 Climbing Kansas City Center
Sat 09:05:23 AM 38.9264 -91.1247 284° West 298 343 25,700 2,213 Climbing Kansas City Center
Sat 09:06:24 AM 38.9467 -91.2322 284° West 306 352 27,900 2,049 Climbing Kansas City Center
Sat 09:07:26 AM 38.9683 -91.3397 285° West 307 353 29,900 1,268 Climbing Kansas City Center
Sat 09:08:27 AM 38.9897 -91.4550 283° West 324 373 30,500 1,426 Climbing Kansas City Center
Sat 09:09:28 AM 39.0114 -91.5733 283° West 336 387 32,800 1,721 Climbing Kansas City Center
Sat 09:10:29 AM 39.0353 -91.7022 283° West 335 386 34,000 1,328 Climbing Kansas City Center
Sat 09:11:30 AM 39.0578 -91.8231 284° West 339 390 35,500 1,377 Climbing Kansas City Center
Sat 09:12:31 AM 39.0797 -91.9419 283° West 340 391 36,800 1,317 Climbing Kansas City Center
Sat 09:13:33 AM 39.1008 -92.0592 283° West 340 391 38,200 1,220 Climbing Kansas City Center
Sat 09:14:34 AM 39.1183 -92.1731 281° West 330 380 39,300 885 Climbing Kansas City Center
Sat 09:15:35 AM 39.1253 -92.2842 275° West 319 367 40,000 344 Climbing Kansas City Center
Sat 09:16:36 AM 39.1342 -92.3983 276° West 317 365 40,000  Level Kansas City Center
Sat 09:17:38 AM 39.1439 -92.5203 276° West 330 380 40,000  Level Kansas City Center
Sat 09:18:39 AM 39.1519 -92.6472 275° West 344 396 40,000  Level Kansas City Center
Sat 09:19:40 AM 39.1633 -92.7917 276° West 355 409 40,000  Level Kansas City Center
Sat 09:20:41 AM 39.1722 -92.9236 275° West 365 420 40,000  Level Kansas City Center
Sat 09:21:43 AM 39.1811 -93.0567 275° West 369 425 40,000  Level Kansas City Center
Sat 09:22:44 AM 39.1903 -93.1867 275° West 369 425 40,000  Level Kansas City Center
Sat 09:23:45 AM 39.1989 -93.3175 275° West 369 425 40,000  Level Kansas City Center
Sat 09:24:46 AM 39.2089 -93.4656 275° West 369 425 40,000  Level Kansas City Center
Sat 09:25:48 AM 39.2175 -93.5903 275° West 368 423 40,000  Level Kansas City Center
Sat 09:26:49 AM 39.2272 -93.7369 275° West 367 422 40,000  Level Kansas City Center
Sat 09:27:50 AM 39.2353 -93.8628 275° West 367 422 40,000  Level Kansas City Center
Sat 09:28:51 AM 39.2428 -93.9878 274° West 367 422 40,000  Level Kansas City Center
Sat 09:29:53 AM 39.2514 -94.1336 274° West 367 422 40,000  Level Kansas City Center
Sat 09:30:54 AM 39.2589 -94.2603 274° West 367 422 40,000  Level Kansas City Center
Sat 09:31:55 AM 39.2672 -94.4058 274° West 367 422 40,000  Level Kansas City Center
Sat 09:32:56 AM 39.2747 -94.5325 274° West 367 422 40,000  Level Kansas City Center
Sat 09:33:58 AM 39.2808 -94.6581 274° West 368 423 40,000  Level Kansas City Center
Sat 09:34:59 AM 39.2914 -94.8047 275° West 368 423 40,000  Level Kansas City Center
Sat 09:36:00 AM 39.3078 -94.9303 280° West 370 426 40,000  Level Kansas City Center
Sat 09:37:02 AM 39.3244 -95.0772 278° West 371 427 40,000  Level Kansas City Center
Sat 09:38:03 AM 39.3406 -95.2111 279° West 375 432 40,000  Level Kansas City Center
Sat 09:39:04 AM 39.3569 -95.3481 279° West 374 430 40,000  Level Kansas City Center
Sat 09:40:05 AM 39.3708 -95.4739 278° West 374 430 40,000  Level Kansas City Center
Sat 09:41:07 AM 39.3853 -95.6003 278° West 374 430 40,000  Level Kansas City Center
Sat 09:42:08 AM 39.4014 -95.7486 278° West 374 430 40,000  Level Kansas City Center
Sat 09:43:09 AM 39.4150 -95.8772 278° West 375 432 40,000  Level Kansas City Center
Sat 09:44:11 AM 39.4317 -96.0264 278° West 375 432 40,000  Level Kansas City Center
Sat 09:45:12 AM 39.4453 -96.1536 278° West 375 432 40,000  Level Kansas City Center
Sat 09:46:13 AM 39.4594 -96.3003 277° West 376 433 40,000  Level Kansas City Center
Sat 09:47:15 AM 39.4725 -96.4331 277° West 376 433 40,000  Level Kansas City Center
Sat 09:48:16 AM 39.4872 -96.5617 278° West 376 433 40,000  Level Kansas City Center
Sat 09:49:18 AM 39.5014 -96.7153 277° West 379 436 40,000  Level Kansas City Center
Sat 09:50:19 AM 39.5161 -96.8447 278° West 383 441 40,000  Level Kansas City Center
Sat 09:51:20 AM 39.5278 -96.9756 277° West 382 440 40,000  Level Kansas City Center
Sat 09:52:22 AM 39.5419 -97.1125 278° West 383 441 40,000  Level Kansas City Center
Sat 09:53:23 AM 39.5553 -97.2597 277° West 383 441 40,000  Level Kansas City Center
Sat 09:54:24 AM 39.5678 -97.3983 277° West 383 441 40,000  Level Kansas City Center
Sat 09:55:26 AM 39.5817 -97.5364 277° West 383 441 40,000  Level Kansas City Center
Sat 09:56:27 AM 39.5947 -97.6753 277° West 384 442 40,000  Level Kansas City Center
Sat 09:57:29 AM 39.6103 -97.8422 277° West 385 443 40,000  Level Kansas City Center
Sat 09:58:30 AM 39.6228 -97.9675 277° West 390 449 40,000  Level Kansas City Center
Sat 09:59:32 AM 39.6356 -98.1064 277° West 390 449 40,000  Level Kansas City Center
Sat 10:00:34 AM 39.6467 -98.2439 276° West 389 448 40,000  Level Kansas City Center
Sat 10:01:48 AM 39.6636 -98.4269 277° West 387 445 40,000  Level Denver Center
Sat 10:03:01 AM 39.6778 -98.5961 276° West 388 447 40,000  Level Minneapolis Center
Sat 10:04:02 AM 39.6903 -98.7358 277° West 389 448 40,000  Level Minneapolis Center
Sat 10:05:03 AM 39.7019 -98.8769 276° West 389 448 40,000  Level Minneapolis Center
Sat 10:06:06 AM 39.7106 -98.9900 276° West 391 450 40,000  Level Denver Center
Sat 10:07:09 AM 39.7242 -99.1583 276° West 391 450 40,000  Level Denver Center
Sat 10:08:08 AM 39.7361 -99.3000 276° West 391 450 40,000  Level Denver Center
Sat 10:09:21 AM 39.7489 -99.4678 276° West 391 450 40,000  Level Denver Center
Sat 10:10:23 AM 39.7614 -99.6389 275° West 392 451 40,000  Level Denver Center
Sat 10:11:25 AM 39.7719 -99.7811 276° West 392 451 40,000  Level Denver Center
Sat 10:12:28 AM 39.7828 -99.9244 276° West 395 455 40,000  Level Denver Center
Sat 10:13:29 AM 39.7931 -100.0669 275° West 395 455 40,000  Level Denver Center
Sat 10:14:29 AM 39.8039 -100.2114 276° West 396 456 40,000  Level Denver Center
Sat 10:15:32 AM 39.8150 -100.3703 275° West 396 456 40,000  Level Denver Center
Sat 10:16:34 AM 39.8247 -100.5078 275° West 398 458 40,000  Level Denver Center
Sat 10:17:35 AM 39.8333 -100.6464 275° West 398 458 40,000  Level Denver Center
Sat 10:18:36 AM 39.8450 -100.8108 275° West 402 463 40,000  Level Denver Center
Sat 10:19:38 AM 39.8542 -100.9503 275° West 403 464 40,000  Level Denver Center
Sat 10:20:39 AM 39.8636 -101.1133 274° West 403 464 40,000  Level Denver Center
Sat 10:21:39 AM 39.8731 -101.2542 275° West 403 464 40,000  Level Denver Center
Sat 10:22:41 AM 39.8811 -101.3944 274° West 406 467 40,000  Level Denver Center
Sat 10:23:44 AM 39.8906 -101.5564 274° West 404 465 40,000  Level Denver Center
Sat 10:24:45 AM 39.8986 -101.6961 274° West 404 465 40,000  Level Denver Center
Sat 10:25:46 AM 39.9075 -101.8575 274° West 403 464 40,000  Level Denver Center
Sat 10:26:49 AM 39.9161 -101.9967 275° West 403 464 40,000  Level Denver Center
Sat 10:27:50 AM 39.9236 -102.1356 274° West 403 464 40,000  Level Denver Center
Sat 10:28:51 AM 39.9319 -102.2972 274° West 401 461 40,000  Level Denver Center
Sat 10:29:54 AM 39.9397 -102.4356 274° West 401 461 40,000  Level Denver Center
Sat 10:30:55 AM 39.9478 -102.5972 274° West 401 461 40,000  Level Denver Center
Sat 10:31:56 AM 39.9528 -102.7375 273° West 400 460 40,000  Level Denver Center
Sat 10:32:57 AM 39.9592 -102.8806 273° West 398 458 40,000  Level Denver Center
Sat 10:34:01 AM 39.9672 -103.0250 274° West 400 460 40,000  Level Denver Center
Sat 10:35:01 AM 39.9728 -103.1703 273° West 401 461 40,000  Level Denver Center
Sat 10:36:03 AM 39.9794 -103.3144 273° West 403 464 40,000  Level Denver Center
Sat 10:37:04 AM 39.9872 -103.4903 273° West 404 465 40,000  Level Denver Center
Sat 10:38:08 AM 39.9931 -103.6364 273° West 404 465 40,000  Level Denver Center
Sat 10:39:09 AM 39.9997 -103.7828 273° West 406 467 40,000  Level Denver Center
Sat 10:40:10 AM 40.0044 -103.9286 272° West 406 467 40,000 -44 Level Denver Center
Sat 10:41:25 AM 40.0122 -104.1036 273° West 406 467 39,900 -926 Descending Denver Center
Sat 10:42:26 AM 40.0183 -104.2814 273° West 410 472 37,900 -1,935 Descending Denver Center
Sat 10:43:29 AM 40.0239 -104.4333 273° West 417 480 35,900 -1,776 Descending Denver Center
Sat 10:44:31 AM 40.0289 -104.5872 272° West 430 495 34,200 -2,146 Descending Denver Center
Sat 10:45:32 AM 40.0342 -104.7381 273° West 427 491 31,500 -2,256 Descending Denver Center
Sat 10:46:36 AM 40.0328 -104.8900 269° West 426 490 29,500 -2,095 Descending Denver Center
Sat 10:47:38 AM 40.0314 -105.0639 269° West 407 468 27,100 -1,220 Descending Denver Center
Sat 10:48:39 AM 40.0286 -105.2044 269° West 394 453 27,000 -49 Descending Denver Center
Sat 10:49:40 AM 40.0261 -105.3464 269° West 393 452 27,000 -619 Level Denver Center
Sat 10:50:45 AM 40.0231 -105.4850 268° West 390 449 25,700 -1,333 Descending Denver Center
Sat 10:51:46 AM 40.0211 -105.6217 269° West 382 440 24,200 -836 Descending Denver Center
Sat 10:52:47 AM 40.0181 -105.7544 268° West 371 427 24,000 -96 Descending Denver Center
Sat 10:53:51 AM 40.0150 -105.9136 269° West 369 425 24,000  Level Denver Center
Sat 10:54:52 AM 40.0125 -106.0308 268° West 322 371 24,000  Level Denver Center
Sat 10:55:55 AM 40.0108 -106.1311 269° West 279 321 24,000  Level Denver Center
Sat 10:57:08 AM 40.0083 -106.2297 268° West 274 315 24,000  Level Denver Center
Sat 10:58:11 AM 40.0042 -106.3514 267° West 277 319 24,000 -912 Level Denver Center
Sat 10:59:13 AM 40.0006 -106.4717 268° West 277 319 22,100 -976 Descending Denver Center
Sat 11:00:14 AM 39.9733 -106.5622 249° West 271 312 22,000 -48 Descending Denver Center
Sat 11:01:18 AM 40.0172 -106.5667 356° North 216 249 22,000  Level Denver Center
Sat 11:02:19 AM 40.0083 -106.4831 98° East 220 253 22,000  Level Denver Center
Sat 11:03:20 AM 39.9889 -106.4053 108° East 242 278 22,000  Level Denver Center
Sat 11:04:24 AM 39.9361 -106.4525 214° Southwest 276 318 22,000  Level Denver Center
Sat 11:05:25 AM 39.9608 -106.5464 289° West 253 291 22,000  Level Denver Center
Sat 11:06:26 AM 40.0100 -106.5411 North 231 266 22,000  Level Denver Center
Sat 11:07:30 AM 40.0042 -106.4431 94° East 238 274 22,000  Level Denver Center
Sat 11:08:31 AM 39.9503 -106.4050 152° Southeast 276 318 22,000  Level Denver Center
Sat 11:09:34 AM 39.9350 -106.4939 257° West 265 305 22,000  Level Denver Center
Sat 11:10:36 AM 39.9858 -106.5719 310° West 246 283 22,000  Level Denver Center
Sat 11:11:37 AM 40.0083 -106.4997 68° East 242 278 22,000  Level Denver Center
Sat 11:12:40 AM 39.9994 -106.4139 98° East 241 277 22,000  Level Denver Center
Sat 11:13:42 AM 39.9433 -106.4131 179° South 280 322 22,000  Level Denver Center
Sat 11:14:45 AM 39.9431 -106.5161 270° West 252 290 22,000  Level Denver Center
Sat 11:15:46 AM 39.9922 -106.5681 321° Northwest 229 264 22,000  Level Denver Center
Sat 11:16:49 AM 40.0078 -106.4883 76° East 215 247 22,000  Level Denver Center
Sat 11:17:50 AM 39.9983 -106.4114 99° East 215 247 22,000  Level Denver Center
Sat 11:18:53 AM 39.9419 -106.4444 204° Southwest 253 291 22,000  Level Denver Center
Sat 11:19:55 AM 39.9617 -106.5289 287° West 233 268 22,000  Level Denver Center
Sat 11:20:56 AM 40.0056 -106.5492 341° North 214 246 22,000  Level Denver Center
Sat 11:21:57 AM 40.0078 -106.4725 88° East 213 245 22,000  Level Denver Center
Sat 11:23:01 AM 39.9678 -106.4075 129° Southeast 248 285 22,000  Level Denver Center
Sat 11:24:03 AM 39.9453 -106.4822 249° West 244 281 22,000  Level Denver Center
Sat 11:25:04 AM 39.9753 -106.5511 300° West 230 265 22,000  Level Denver Center
Sat 11:26:07 AM 40.0106 -106.5069 44° Northeast 205 236 22,000 -429 Level Denver Center
Sat 11:27:10 AM 40.0028 -106.4317 98° East 226 260 21,100 -484 Descending Denver Center
Sat 11:28:11 AM 39.9372 -106.4353 182° South 280 322 21,000 -49 Descending Denver Center
Sat 11:29:12 AM 39.9453 -106.5078 278° West 252 290 21,000  Level Denver Center
Sat 11:30:16 AM 39.9839 -106.5661 311° West 247 284 21,000 -768 Level Denver Center
Sat 11:31:17 AM 40.0083 -106.4794 70° East 236 272 19,400 -960 Descending Denver Center
Sat 11:32:21 AM 39.9836 -106.4050 113° Southeast 241 277 19,000 -194 Descending Denver Center
Sat 11:33:21 AM 39.9400 -106.4606 224° Southwest 247 284 19,000 -532 Level Denver Center
Sat 11:34:25 AM 39.9581 -106.5439 286° West 242 278 17,900 -1,258 Descending Denver Center
Sat 11:35:25 AM 40.0114 -106.5817 332° Northwest 228 262 16,400 -1,403 Descending Denver Center
Sat 11:36:29 AM 40.0783 -106.6197 336° Northwest 226 260 15,000 -677 Descending Denver Center
Sat 11:37:29 AM 40.0719 -106.5594 98° East 218 251 15,000 -339 Level Denver Center
Sat 11:38:33 AM 40.0019 -106.5547 177° South 238 274 14,300 -476 Descending Denver Center
Sat 11:39:35 AM 39.9214 -106.5464 175° South 265 305 14,000 -148 Descending Denver Center
Sat 11:40:35 AM 39.8369 -106.5375 175° South 285 328 14,000 -288 Level Denver Center
Sat 11:41:40 AM 39.7647 -106.5414 182° South 266 306 13,400 -520 Descending Denver Center
Sat 11:42:42 AM 39.6967 -106.5753 201° Southwest 230 265 12,900 -934 Descending Denver Center
Sat 11:43:42 AM 39.6822 -106.6497 256° West 214 246 11,500 -1,258 Descending Denver Center
Sat 11:44:46 AM 39.6719 -106.7167 259° West 193 222 10,300 -1,152 Descending Denver Center
Sat 11:45:47 AM 39.6631 -106.7747 259° West 170 196 9,100 -1,131 Descending Denver Center
Sat 11:46:48 AM 39.6511 -106.8317 255° West 167 192 8,000 -1,056 Descending Denver Center
Sat 11:47:52 AM 39.6456 -106.8853 262° West 158 182 6,900 -1,031 Descending Denver Center

Login

Don't have an account? Register now (free) for customized features, flight alerts, and more!